Time;durP1;ratioP1;P1;durP2;ratioP2;P2;SDS_P1;SDS_P2;PMS_P1;PMS_P2;Temp;Humidity;BMP_temperature;BMP_pressure;BME280_temperature;BME280_humidity;BME280_pressure;Samples;Min_cycle;Max_cycle;Signal;HPM_P1;HPM_P2
2021/10/22 00:01:49;;;;;;;2.65;0.40;;;;;13.90;101230.00;;;;5049157;28;20230;-77
2021/10/22 00:04:17;;;;;;;1.90;0.40;;;;;13.90;101234.00;;;;5033492;28;20196;-77
2021/10/22 00:06:44;;;;;;;2.92;0.43;;;;;13.90;101214.00;;;;5029274;28;20277;-77
2021/10/22 00:09:11;;;;;;;3.30;0.90;;;;;13.90;101213.00;;;;5028480;28;20211;-77
2021/10/22 00:11:43;;;;;;;3.95;0.45;;;;;13.90;101217.00;;;;5030113;28;20793;-76
2021/10/22 00:14:11;;;;;;;4.00;0.90;;;;;13.90;101216.00;;;;5027653;28;20243;-77
2021/10/22 00:16:38;;;;;;;2.92;0.60;;;;;13.90;101223.00;;;;5028087;28;20224;-76
2021/10/22 00:19:07;;;;;;;2.30;0.90;;;;;13.80;101222.00;;;;5042400;28;20223;-77
2021/10/22 00:21:34;;;;;;;2.80;0.65;;;;;13.80;101208.00;;;;5052598;28;20198;-77
2021/10/22 00:24:02;;;;;;;4.90;1.25;;;;;13.80;101212.00;;;;5067729;28;20203;-77
2021/10/22 00:26:29;;;;;;;1.27;0.40;;;;;13.80;101203.00;;;;5069763;28;20206;-77
2021/10/22 00:28:57;;;;;;;2.35;0.73;;;;;13.80;101216.00;;;;5039848;28;20203;-77
2021/10/22 00:31:24;;;;;;;1.95;0.60;;;;;13.80;101206.00;;;;5056831;28;21114;-77
2021/10/22 00:33:51;;;;;;;2.20;0.50;;;;;13.80;101210.00;;;;5035195;28;20196;-77
2021/10/22 00:36:20;;;;;;;3.70;0.75;;;;;13.70;101224.00;;;;5047638;28;20227;-77
2021/10/22 00:38:47;;;;;;;2.03;0.52;;;;;13.70;101221.00;;;;5051566;28;20196;-77
2021/10/22 00:41:15;;;;;;;2.15;0.60;;;;;13.70;101224.00;;;;5066041;28;20226;-77
2021/10/22 00:43:42;;;;;;;4.97;0.77;;;;;13.70;101217.00;;;;5064953;28;20227;-77
2021/10/22 00:46:09;;;;;;;3.08;0.75;;;;;13.70;101211.00;;;;5033681;28;20207;-77
2021/10/22 00:48:37;;;;;;;2.90;0.40;;;;;13.70;101210.00;;;;5041447;28;20199;-77
2021/10/22 00:51:06;;;;;;;1.70;0.60;;;;;13.60;101216.00;;;;5065565;28;20207;-76
2021/10/22 00:53:37;;;;;;;2.50;0.75;;;;;13.60;101223.00;;;;5050009;28;20203;-77
2021/10/22 00:56:05;;;;;;;3.08;0.77;;;;;13.60;101216.00;;;;5051572;28;20195;-77
2021/10/22 00:58:32;;;;;;;2.60;0.57;;;;;13.60;101213.00;;;;5048931;28;20207;-77
2021/10/22 01:01:00;;;;;;;2.40;0.55;;;;;13.60;101209.00;;;;5044856;28;20624;-77
2021/10/22 01:03:27;;;;;;;2.83;1.00;;;;;13.60;101207.00;;;;5050465;28;20210;-77
2021/10/22 01:05:54;;;;;;;5.45;0.90;;;;;13.60;101205.00;;;;5061434;28;20206;-77
2021/10/22 01:08:22;;;;;;;1.92;0.50;;;;;13.60;101208.00;;;;5046521;28;20208;-77
2021/10/22 01:10:51;;;;;;;2.20;0.80;;;;;13.50;101210.00;;;;5038526;28;20200;-77
2021/10/22 01:13:18;;;;;;;1.50;0.60;;;;;13.50;101203.00;;;;5051007;28;20196;-77
2021/10/22 01:15:46;;;;;;;3.00;0.80;;;;;13.50;101199.00;;;;5042797;28;20200;-77
2021/10/22 01:18:13;;;;;;;2.28;0.65;;;;;13.50;101203.00;;;;5031143;28;20239;-77
2021/10/22 01:20:42;;;;;;;4.03;0.70;;;;;13.50;101199.00;;;;5049831;28;20199;-77
2021/10/22 01:23:10;;;;;;;2.85;0.68;;;;;13.50;101190.00;;;;5070000;28;20227;-76
2021/10/22 01:25:37;;;;;;;2.75;1.00;;;;;13.50;101185.00;;;;5069609;28;20206;-76
2021/10/22 01:28:06;;;;;;;4.10;0.60;;;;;13.40;101192.00;;;;5030620;28;20977;-77
2021/10/22 01:30:33;;;;;;;0.93;0.45;;;;;13.40;101188.00;;;;5045153;28;20536;-77
2021/10/22 01:33:05;;;;;;;2.42;0.55;;;;;13.40;101189.00;;;;5050166;28;20207;-77
2021/10/22 01:35:34;;;;;;;2.92;0.50;;;;;13.40;101188.00;;;;5046751;28;20208;-77
2021/10/22 01:38:03;;;;;;;2.15;0.65;;;;;13.30;101186.00;;;;5045678;28;20273;-77
2021/10/22 01:40:30;;;;;;;1.85;0.85;;;;;13.30;101191.00;;;;5056605;28;20227;-77
2021/10/22 01:42:58;;;;;;;2.47;0.55;;;;;13.30;101192.00;;;;5052729;28;20207;-77
2021/10/22 01:45:25;;;;;;;5.22;0.63;;;;;13.30;101182.00;;;;5048443;28;20680;-77
2021/10/22 01:47:52;;;;;;;0.98;0.50;;;;;13.30;101183.00;;;;5050180;28;20206;-77
2021/10/22 01:50:20;;;;;;;1.95;0.95;;;;;13.30;101185.00;;;;5031895;28;20204;-77
2021/10/22 01:52:47;;;;;;;1.42;0.47;;;;;13.30;101183.00;;;;5036321;28;20212;-77
2021/10/22 01:55:15;;;;;;;1.48;0.45;;;;;13.30;101181.00;;;;5050169;28;20206;-77
2021/10/22 01:57:43;;;;;;;2.00;0.75;;;;;13.30;101178.00;;;;5050828;28;20231;-76
2021/10/22 02:00:11;;;;;;;2.53;0.60;;;;;13.20;101172.00;;;;5053734;28;20206;-77
2021/10/22 02:02:38;;;;;;;3.55;0.40;;;;;13.20;101164.00;;;;5070604;28;20215;-77
2021/10/22 02:05:06;;;;;;;3.83;0.55;;;;;13.30;101173.00;;;;5070169;28;20209;-77
2021/10/22 02:07:33;;;;;;;0.85;0.30;;;;;13.20;101173.00;;;;5071058;28;20191;-77
2021/10/22 02:10:00;;;;;;;2.10;0.50;;;;;13.20;101165.00;;;;5038124;28;20681;-77
2021/10/22 02:12:29;;;;;;;1.02;0.38;;;;;13.20;101167.00;;;;5051931;28;20203;-77
2021/10/22 02:14:56;;;;;;;3.03;0.40;;;;;13.20;101171.00;;;;5031602;28;20193;-77
2021/10/22 02:17:24;;;;;;;1.90;0.70;;;;;13.20;101171.00;;;;5030603;28;20270;-77
2021/10/22 02:19:51;;;;;;;5.20;0.90;;;;;13.20;101166.00;;;;5042442;28;20196;-76
2021/10/22 02:22:19;;;;;;;2.25;0.60;;;;;13.20;101167.00;;;;5050203;28;20203;-77
2021/10/22 02:24:46;;;;;;;1.13;0.50;;;;;13.20;101154.00;;;;5050285;28;20199;-77
2021/10/22 02:27:13;;;;;;;1.52;0.32;;;;;13.20;101158.00;;;;5039934;28;20209;-77
2021/10/22 02:29:42;;;;;;;2.38;0.50;;;;;13.20;101151.00;;;;5030398;28;20200;-78
2021/10/22 02:32:09;;;;;;;2.05;0.75;;;;;13.20;101139.00;;;;5047883;28;20211;-77
2021/10/22 02:34:36;;;;;;;2.67;0.63;;;;;13.20;101137.00;;;;5030129;28;20201;-77
2021/10/22 02:37:04;;;;;;;2.13;0.43;;;;;13.20;101141.00;;;;5046916;28;20220;-77
2021/10/22 02:39:33;;;;;;;1.25;0.40;;;;;13.20;101143.00;;;;5040814;28;20193;-77
2021/10/22 02:42:00;;;;;;;2.65;0.60;;;;;13.20;101137.00;;;;5064074;28;20280;-77
2021/10/22 02:44:28;;;;;;;2.88;0.50;;;;;13.20;101128.00;;;;5032532;28;20239;-77
2021/10/22 02:46:57;;;;;;;3.28;0.65;;;;;13.20;101124.00;;;;5029577;28;20219;-77
2021/10/22 02:49:24;;;;;;;2.72;0.68;;;;;13.20;101124.00;;;;5029709;28;20207;-77
2021/10/22 02:51:52;;;;;;;1.08;0.50;;;;;13.20;101131.00;;;;5051561;28;20200;-77
2021/10/22 02:54:19;;;;;;;1.67;0.55;;;;;13.20;101128.00;;;;5049216;28;20211;-77
2021/10/22 02:56:47;;;;;;;1.88;0.57;;;;;13.20;101125.00;;;;5049349;28;20608;-78
2021/10/22 02:59:14;;;;;;;3.08;0.95;;;;;13.20;101124.00;;;;5042889;28;20234;-77
2021/10/22 03:01:42;;;;;;;3.33;0.75;;;;;13.20;101129.00;;;;5048553;28;21100;-77
2021/10/22 03:04:11;;;;;;;2.38;0.45;;;;;13.20;101125.00;;;;5048998;28;20198;-77
2021/10/22 03:06:38;;;;;;;3.58;0.55;;;;;13.20;101124.00;;;;5045712;28;20204;-77
2021/10/22 03:09:06;;;;;;;2.58;0.73;;;;;13.20;101125.00;;;;5029457;28;20196;-77
2021/10/22 03:11:33;;;;;;;3.15;0.57;;;;;13.20;101139.00;;;;5035411;28;20212;-77
2021/10/22 03:14:00;;;;;;;3.42;0.55;;;;;13.20;101142.00;;;;5029313;28;20616;-76
2021/10/22 03:16:27;;;;;;;1.77;0.47;;;;;13.20;101135.00;;;;5029160;28;20196;-77
2021/10/22 03:18:55;;;;;;;2.63;0.45;;;;;13.20;101128.00;;;;5029550;28;20242;-77
2021/10/22 03:21:23;;;;;;;3.00;0.60;;;;;13.20;101128.00;;;;5051374;28;20211;-77
2021/10/22 03:23:55;;;;;;;2.50;0.35;;;;;13.20;101125.00;;;;5056009;28;20632;-77
2021/10/22 03:26:22;;;;;;;2.83;1.17;;;;;13.20;101127.00;;;;5068754;28;20676;-77
2021/10/22 03:28:49;;;;;;;2.83;0.40;;;;;13.20;101125.00;;;;5028978;28;20204;-77
2021/10/22 03:31:17;;;;;;;1.65;0.50;;;;;13.20;101124.00;;;;5044461;28;20199;-77
2021/10/22 03:33:44;;;;;;;2.10;0.98;;;;;13.20;101122.00;;;;5029553;28;20196;-77
2021/10/22 03:36:11;;;;;;;2.13;0.88;;;;;13.10;101114.00;;;;5046257;28;20207;-77
2021/10/22 03:38:40;;;;;;;2.70;0.40;;;;;13.10;101122.00;;;;5044725;28;20227;-77
2021/10/22 03:41:08;;;;;;;4.38;0.85;;;;;13.10;101109.00;;;;5046583;28;20227;-77
2021/10/22 03:43:35;;;;;;;1.23;0.65;;;;;13.10;101115.00;;;;5049067;28;20291;-77
2021/10/22 03:46:03;;;;;;;2.88;1.00;;;;;13.20;101115.00;;;;5047921;28;20192;-77
2021/10/22 03:48:30;;;;;;;3.88;1.10;;;;;13.20;101103.00;;;;5048570;28;20195;-77
2021/10/22 03:50:58;;;;;;;2.75;0.50;;;;;13.20;101096.00;;;;5041095;28;20196;-77
2021/10/22 03:53:25;;;;;;;1.65;0.50;;;;;13.20;101103.00;;;;5030842;28;20227;-77
2021/10/22 03:55:53;;;;;;;4.30;0.77;;;;;13.20;101101.00;;;;5027273;28;20214;-77
2021/10/22 03:58:21;;;;;;;3.30;0.70;;;;;13.20;101104.00;;;;5043811;28;20603;-77
2021/10/22 04:00:48;;;;;;;1.25;0.50;;;;;13.20;101102.00;;;;5030682;28;20235;-77
2021/10/22 04:03:15;;;;;;;6.05;0.60;;;;;13.20;101107.00;;;;5034743;28;20211;-77
2021/10/22 04:05:43;;;;;;;1.02;0.45;;;;;13.20;101111.00;;;;5035433;28;20208;-77
2021/10/22 04:08:11;;;;;;;1.20;0.47;;;;;13.30;101117.00;;;;5034826;28;20223;-77
2021/10/22 04:10:41;;;;;;;4.35;1.02;;;;;13.30;101112.00;;;;5041263;28;20302;-77
2021/10/22 04:13:10;;;;;;;4.65;0.50;;;;;13.30;101125.00;;;;5053890;28;20225;-77
2021/10/22 04:15:38;;;;;;;2.38;0.57;;;;;13.40;101121.00;;;;5055208;28;20227;-77
2021/10/22 04:18:05;;;;;;;3.15;0.55;;;;;13.40;101124.00;;;;5053992;28;20318;-77
2021/10/22 04:20:33;;;;;;;3.78;0.63;;;;;13.40;101141.00;;;;5052094;28;20206;-77
2021/10/22 04:23:00;;;;;;;3.67;0.82;;;;;13.50;101135.00;;;;5054125;28;20207;-77
2021/10/22 04:25:28;;;;;;;4.65;0.75;;;;;13.50;101125.00;;;;5048050;28;20199;-77
2021/10/22 04:27:56;;;;;;;4.10;0.85;;;;;13.50;101132.00;;;;5054398;28;20202;-77
2021/10/22 04:30:24;;;;;;;3.20;0.68;;;;;13.50;101127.00;;;;5049585;28;20203;-77
2021/10/22 04:32:52;;;;;;;5.13;1.17;;;;;13.60;101128.00;;;;5060274;28;20206;-77
2021/10/22 04:35:19;;;;;;;2.50;0.73;;;;;13.60;101135.00;;;;5054783;28;20196;-77
2021/10/22 04:38:00;;;;;;;1.65;0.70;;;;;13.60;101129.00;;;;5054596;28;20313;-77
2021/10/22 04:40:31;;;;;;;2.35;0.70;;;;;13.60;101140.00;;;;5041491;28;20306;-77
2021/10/22 04:43:00;;;;;;;1.70;0.57;;;;;13.70;101143.00;;;;5034666;28;20203;-77
2021/10/22 04:45:30;;;;;;;2.17;0.55;;;;;13.70;101137.00;;;;5038024;28;20301;-77
2021/10/22 04:47:57;;;;;;;1.95;0.60;;;;;13.80;101153.00;;;;5053930;28;20203;-77
2021/10/22 04:50:26;;;;;;;0.82;0.47;;;;;13.80;101157.00;;;;5053110;28;20203;-78
2021/10/22 04:52:54;;;;;;;1.95;0.80;;;;;13.80;101156.00;;;;5052093;28;20200;-77
2021/10/22 04:55:23;;;;;;;2.85;0.77;;;;;13.90;101154.00;;;;5041089;28;20208;-78
2021/10/22 04:57:51;;;;;;;2.65;0.65;;;;;13.90;101152.00;;;;5037100;28;20286;-78
2021/10/22 05:00:19;;;;;;;4.35;0.98;;;;;13.90;101156.00;;;;5045556;28;20195;-77
2021/10/22 05:02:48;;;;;;;6.35;0.95;;;;;14.00;101146.00;;;;5035473;28;20278;-77
2021/10/22 05:05:16;;;;;;;2.53;0.70;;;;;14.00;101149.00;;;;5042380;28;20191;-78
2021/10/22 05:07:44;;;;;;;1.30;0.50;;;;;14.00;101152.00;;;;5045502;28;20711;-77
2021/10/22 05:10:12;;;;;;;2.03;0.65;;;;;14.10;101148.00;;;;5046845;28;20391;-77
2021/10/22 05:12:40;;;;;;;4.20;0.85;;;;;14.10;101133.00;;;;5040792;28;20189;-77
2021/10/22 05:15:09;;;;;;;1.92;0.60;;;;;14.10;101136.00;;;;5049252;28;20195;-78
2021/10/22 05:17:37;;;;;;;3.20;1.13;;;;;14.10;101135.00;;;;5039037;28;20204;-78
2021/10/22 05:20:08;;;;;;;2.13;0.70;;;;;14.10;101126.00;;;;5031660;28;20197;-78
2021/10/22 05:22:36;;;;;;;2.15;1.05;;;;;14.10;101122.00;;;;5036393;28;20200;-78
2021/10/22 05:25:05;;;;;;;3.13;0.73;;;;;14.10;101129.00;;;;5031314;28;20862;-77
2021/10/22 05:27:32;;;;;;;4.03;0.90;;;;;14.10;101116.00;;;;5045528;28;20199;-78
2021/10/22 05:29:59;;;;;;;1.95;0.80;;;;;14.10;101100.00;;;;5051120;28;20196;-78
2021/10/22 05:32:26;;;;;;;4.95;1.08;;;;;14.10;101092.00;;;;5050696;28;20200;-78
2021/10/22 05:34:54;;;;;;;2.60;1.02;;;;;14.10;101091.00;;;;5040634;28;20204;-78
2021/10/22 05:37:22;;;;;;;1.92;0.80;;;;;14.10;101086.00;;;;5066079;28;20199;-78
2021/10/22 05:39:50;;;;;;;1.75;0.90;;;;;14.20;101079.00;;;;5051727;28;20706;-78
2021/10/22 05:42:17;;;;;;;3.08;1.02;;;;;14.20;101082.00;;;;5031481;28;20547;-77
2021/10/22 05:44:45;;;;;;;4.32;0.90;;;;;14.20;101079.00;;;;5032697;28;20195;-77
2021/10/22 05:47:13;;;;;;;3.03;0.75;;;;;14.20;101083.00;;;;5051328;28;20204;-79
2021/10/22 05:49:42;;;;;;;2.45;0.88;;;;;14.20;101078.00;;;;5037396;28;20204;-78
2021/10/22 05:52:09;;;;;;;3.25;1.10;;;;;14.20;101075.00;;;;5046355;28;20214;-78
2021/10/22 05:54:38;;;;;;;2.67;0.65;;;;;14.20;101086.00;;;;5037909;28;20681;-78
2021/10/22 05:57:05;;;;;;;2.72;0.63;;;;;14.30;101109.00;;;;5047683;28;20203;-78
2021/10/22 05:59:33;;;;;;;2.15;0.63;;;;;14.30;101104.00;;;;5030262;28;20314;-78
2021/10/22 06:02:00;;;;;;;2.25;0.95;;;;;14.30;101099.00;;;;5046717;28;20218;-78
2021/10/22 06:04:27;;;;;;;2.42;0.82;;;;;14.30;101093.00;;;;5045217;28;20542;-78
2021/10/22 06:06:55;;;;;;;8.27;1.13;;;;;14.30;101088.00;;;;5039105;28;20669;-78
2021/10/22 06:09:22;;;;;;;3.78;0.80;;;;;14.30;101085.00;;;;5041337;28;20219;-78
2021/10/22 06:11:52;;;;;;;7.78;1.33;;;;;14.30;101084.00;;;;5037549;28;20292;-78
2021/10/22 06:14:19;;;;;;;6.35;1.25;;;;;14.40;101094.00;;;;5036478;28;20831;-78
2021/10/22 06:16:47;;;;;;;3.28;0.98;;;;;14.30;101081.00;;;;5040756;28;20212;-79
2021/10/22 06:19:21;;;;;;;2.53;1.05;;;;;14.40;101084.00;;;;5042085;28;20600;-78
2021/10/22 06:22:07;;;;;;;4.20;0.88;;;;;14.40;101084.00;;;;5039089;28;20204;-78
2021/10/22 06:24:35;;;;;;;3.63;1.20;;;;;14.40;101080.00;;;;5039829;28;20223;-78
2021/10/22 06:27:04;;;;;;;2.13;0.77;;;;;14.40;101080.00;;;;5042588;28;20196;-78
2021/10/22 06:29:33;;;;;;;2.78;1.08;;;;;14.40;101079.00;;;;5042611;28;20203;-78
2021/10/22 06:32:01;;;;;;;4.10;0.60;;;;;14.40;101087.00;;;;5043622;28;20223;-78
2021/10/22 06:34:28;;;;;;;2.08;0.50;;;;;14.40;101092.00;;;;5043118;28;20196;-79
2021/10/22 06:36:56;;;;;;;1.95;0.68;;;;;14.50;101101.00;;;;5041488;28;20204;-78
2021/10/22 06:39:24;;;;;;;1.92;0.93;;;;;14.50;101102.00;;;;5042379;28;20727;-78
2021/10/22 06:41:51;;;;;;;3.83;0.60;;;;;14.50;101104.00;;;;5041568;28;20228;-78
2021/10/22 06:44:23;;;;;;;4.40;0.65;;;;;14.50;101105.00;;;;5041807;28;20196;-78
2021/10/22 06:46:51;;;;;;;5.40;0.93;;;;;14.60;101107.00;;;;5039684;28;20577;-78
2021/10/22 06:49:18;;;;;;;2.83;0.80;;;;;14.60;101110.00;;;;5038646;28;20246;-78
2021/10/22 06:51:46;;;;;;;3.72;1.35;;;;;14.60;101120.00;;;;5039741;28;20196;-78
2021/10/22 06:54:13;;;;;;;2.50;1.00;;;;;14.60;101110.00;;;;5038812;28;20200;-78
2021/10/22 06:56:41;;;;;;;3.65;1.00;;;;;14.60;101111.00;;;;5041829;28;20207;-78
2021/10/22 06:59:08;;;;;;;2.83;0.70;;;;;14.60;101114.00;;;;5034956;28;20220;-81
2021/10/22 07:01:36;;;;;;;2.80;1.10;;;;;14.60;101117.00;;;;5032824;28;20224;-78
2021/10/22 07:04:04;;;;;;;3.78;1.13;;;;;14.60;101106.00;;;;5035685;28;20282;-78
2021/10/22 07:09:16;;;;;;;3.38;1.02;;;;;14.70;101118.00;;;;5049260;28;21350;-78
2021/10/22 07:11:43;;;;;;;2.88;0.95;;;;;14.70;101112.00;;;;5042868;28;20203;-78
2021/10/22 07:14:11;;;;;;;3.22;1.10;;;;;14.70;101107.00;;;;5034592;28;20200;-78
2021/10/22 07:16:41;;;;;;;7.20;1.50;;;;;14.70;101109.00;;;;5043554;28;20200;-78
2021/10/22 07:19:09;;;;;;;3.45;0.98;;;;;14.80;101114.00;;;;5038421;28;20215;-78
2021/10/22 07:21:43;;;;;;;3.08;1.38;;;;;14.80;101121.00;;;;5047548;28;20196;-78
2021/10/22 07:24:16;;;;;;;5.20;1.30;;;;;14.80;101126.00;;;;5036894;28;20198;-78
2021/10/22 07:26:44;;;;;;;4.20;1.70;;;;;14.90;101131.00;;;;5048811;28;20286;-78
2021/10/22 07:29:11;;;;;;;2.38;1.38;;;;;14.90;101139.00;;;;5045783;28;20204;-78
2021/10/22 07:31:40;;;;;;;3.85;1.30;;;;;14.90;101142.00;;;;5039132;28;20200;-79
2021/10/22 07:34:08;;;;;;;2.45;0.98;;;;;15.00;101134.00;;;;5047330;28;20209;-78
2021/10/22 07:36:35;;;;;;;3.05;1.45;;;;;15.00;101136.00;;;;5038855;28;20203;-78
2021/10/22 07:39:03;;;;;;;5.40;1.63;;;;;15.00;101133.00;;;;5031626;28;20594;-78
2021/10/22 07:41:30;;;;;;;2.40;0.90;;;;;15.00;101136.00;;;;5045759;28;20219;-78
2021/10/22 07:43:57;;;;;;;3.80;1.20;;;;;15.10;101135.00;;;;5038576;28;20200;-78
2021/10/22 07:46:25;;;;;;;1.63;1.05;;;;;15.10;101141.00;;;;5032420;28;20203;-78
2021/10/22 07:48:53;;;;;;;4.55;1.48;;;;;15.20;101138.00;;;;5046821;28;20669;-79
2021/10/22 07:51:21;;;;;;;4.60;1.00;;;;;15.20;101143.00;;;;5053522;28;20203;-78
2021/10/22 07:53:49;;;;;;;2.40;0.63;;;;;15.30;101147.00;;;;5040055;28;20200;-78
2021/10/22 07:56:17;;;;;;;14.23;1.33;;;;;15.30;101152.00;;;;5032950;28;20279;-78
2021/10/22 07:58:49;;;;;;;2.67;0.85;;;;;15.30;101139.00;;;;5040048;28;20231;-78
2021/10/22 08:01:17;;;;;;;1.90;0.60;;;;;15.40;101159.00;;;;5032959;28;20222;-79
2021/10/22 08:03:45;;;;;;;2.03;0.65;;;;;15.40;101151.00;;;;5043009;28;20212;-78
2021/10/22 08:06:15;;;;;;;2.50;0.57;;;;;15.40;101155.00;;;;5045316;28;20210;-77
2021/10/22 08:08:44;;;;;;;3.83;0.70;;;;;15.50;101154.00;;;;5030787;28;20208;-78
2021/10/22 08:11:13;;;;;;;2.95;1.10;;;;;15.50;101155.00;;;;5031570;28;20203;-79
2021/10/22 08:13:40;;;;;;;2.72;0.85;;;;;15.60;101146.00;;;;5039389;28;20194;-78
2021/10/22 08:16:08;;;;;;;2.28;0.70;;;;;15.60;101142.00;;;;5034542;28;20303;-78
2021/10/22 08:18:37;;;;;;;4.22;1.13;;;;;15.70;101156.00;;;;5038996;28;20199;-79
2021/10/22 08:21:16;;;;;;;1.85;0.82;;;;;15.80;101159.00;;;;5043846;28;20204;-79
2021/10/22 08:23:45;;;;;;;1.83;0.60;;;;;15.80;101149.00;;;;5042271;28;20228;-77
2021/10/22 08:26:12;;;;;;;8.75;0.90;;;;;15.90;101163.00;;;;5036735;28;20249;-77
2021/10/22 08:28:39;;;;;;;4.47;0.77;;;;;15.90;101155.00;;;;5035015;28;20574;-78
2021/10/22 08:31:07;;;;;;;4.75;0.68;;;;;16.00;101163.00;;;;5040421;28;20218;-77
2021/10/22 08:33:35;;;;;;;2.90;0.60;;;;;16.00;101158.00;;;;5039632;28;20204;-78
2021/10/22 08:36:03;;;;;;;2.95;0.88;;;;;16.00;101175.00;;;;5037057;28;20539;-78
2021/10/22 08:38:30;;;;;;;3.20;0.60;;;;;16.10;101167.00;;;;5040452;28;20194;-78
2021/10/22 08:41:00;;;;;;;4.50;1.08;;;;;16.10;101175.00;;;;5040211;28;20231;-77
2021/10/22 08:43:28;;;;;;;1.77;0.70;;;;;16.10;101164.00;;;;5032107;28;20204;-79
2021/10/22 08:45:56;;;;;;;3.22;0.85;;;;;16.20;101167.00;;;;5035991;28;20201;-78
2021/10/22 08:48:24;;;;;;;5.32;0.60;;;;;16.20;101173.00;;;;5043604;28;20596;-78
2021/10/22 08:50:52;;;;;;;4.05;0.85;;;;;16.20;101167.00;;;;5047403;28;20191;-77
2021/10/22 08:53:19;;;;;;;7.88;0.98;;;;;16.30;101167.00;;;;5038490;28;20192;-77
2021/10/22 08:55:47;;;;;;;5.25;1.05;;;;;16.30;101166.00;;;;5046897;28;20219;-77
2021/10/22 08:58:18;;;;;;;3.78;0.70;;;;;16.40;101168.00;;;;5051022;28;20199;-76
2021/10/22 09:00:46;;;;;;;2.40;0.77;;;;;16.40;101176.00;;;;5055528;28;20233;-76
2021/10/22 09:03:18;;;;;;;5.53;0.82;;;;;16.40;101173.00;;;;5045332;28;20208;-76
2021/10/22 09:05:57;;;;;;;3.38;1.13;;;;;16.40;101181.00;;;;5032060;28;20574;-76
2021/10/22 09:08:32;;;;;;;7.88;1.05;;;;;16.50;101173.00;;;;5039581;28;20578;-77
2021/10/22 09:11:00;;;;;;;5.68;1.23;;;;;16.60;101173.00;;;;5051086;28;20195;-78
2021/10/22 09:13:30;;;;;;;2.78;0.77;;;;;16.60;101178.00;;;;5035506;28;20219;-76
2021/10/22 09:15:58;;;;;;;2.40;0.63;;;;;16.60;101186.00;;;;5038740;28;20212;-76
2021/10/22 09:18:29;;;;;;;3.92;0.57;;;;;16.60;101187.00;;;;5038990;28;20200;-75
2021/10/22 09:20:59;;;;;;;4.82;0.93;;;;;16.70;101183.00;;;;5031245;28;20254;-76
2021/10/22 09:23:28;;;;;;;5.70;0.85;;;;;16.70;101188.00;;;;5046188;28;20857;-77
2021/10/22 09:26:14;;;;;;;7.05;0.80;;;;;16.70;101192.00;;;;5037667;28;20212;-76
2021/10/22 09:28:43;;;;;;;3.03;0.65;;;;;16.80;101190.00;;;;5038366;28;20577;-76
2021/10/22 09:31:12;;;;;;;5.82;0.98;;;;;16.90;101194.00;;;;5047299;28;20204;-77
2021/10/22 09:33:51;;;;;;;3.00;0.90;;;;;16.80;101197.00;;;;5045477;28;20200;-76
2021/10/22 09:36:32;;;;;;;3.17;0.90;;;;;16.80;101202.00;;;;5046054;28;20799;-75
2021/10/22 09:39:08;;;;;;;3.58;0.70;;;;;16.90;101196.00;;;;5037300;28;20211;-76
2021/10/22 09:41:37;;;;;;;1.67;0.77;;;;;16.90;101212.00;;;;5037854;28;20236;-77
2021/10/22 09:44:23;;;;;;;6.72;0.82;;;;;16.90;101205.00;;;;5046523;28;20211;-77
2021/10/22 09:46:52;;;;;;;2.60;0.90;;;;;17.00;101196.00;;;;5030457;28;20678;-76
2021/10/22 09:49:29;;;;;;;2.85;1.10;;;;;16.90;101215.00;;;;5045096;28;20733;-76
2021/10/22 09:51:56;;;;;;;4.45;0.85;;;;;17.00;101219.00;;;;5043757;28;20254;-77
2021/10/22 09:54:29;;;;;;;1.90;0.55;;;;;16.90;101216.00;;;;5030781;28;20193;-77
2021/10/22 09:56:58;;;;;;;1.88;0.50;;;;;17.00;101227.00;;;;5034713;28;20232;-76
2021/10/22 09:59:27;;;;;;;3.63;0.90;;;;;17.00;101226.00;;;;5036296;28;20594;-77
2021/10/22 10:01:56;;;;;;;4.05;1.10;;;;;17.00;101233.00;;;;5038005;28;20304;-76
2021/10/22 10:04:24;;;;;;;4.90;1.25;;;;;17.00;101247.00;;;;5029639;28;20200;-76
2021/10/22 10:06:53;;;;;;;3.10;0.75;;;;;17.00;101255.00;;;;5038820;28;20197;-76
2021/10/22 10:09:21;;;;;;;2.85;0.77;;;;;17.00;101247.00;;;;5041513;28;20253;-76
2021/10/22 10:11:50;;;;;;;4.60;0.65;;;;;17.00;101245.00;;;;5044493;28;20201;-75
2021/10/22 10:14:18;;;;;;;2.33;0.75;;;;;17.00;101252.00;;;;5036488;28;20287;-76
2021/10/22 10:16:47;;;;;;;4.03;0.70;;;;;17.00;101248.00;;;;5030808;28;20202;-76
2021/10/22 10:19:20;;;;;;;3.65;1.17;;;;;17.00;101240.00;;;;5034599;28;20283;-75
2021/10/22 10:21:51;;;;;;;4.93;1.30;;;;;17.00;101254.00;;;;5041572;28;20208;-76
2021/10/22 10:24:21;;;;;;;2.58;0.50;;;;;17.00;101255.00;;;;5034509;28;20196;-76
2021/10/22 10:27:03;;;;;;;4.13;1.27;;;;;16.90;101251.00;;;;5041623;28;20223;-75
2021/10/22 10:29:32;;;;;;;3.35;0.65;;;;;17.00;101253.00;;;;5032110;28;20542;-76
2021/10/22 10:32:04;;;;;;;4.13;1.30;;;;;16.90;101268.00;;;;5037666;28;20726;-75
2021/10/22 10:34:40;;;;;;;2.88;0.60;;;;;16.90;101270.00;;;;5034130;28;20560;-75
2021/10/22 10:37:31;;;;;;;4.60;1.27;;;;;16.90;101269.00;;;;5038827;28;20230;-76
2021/10/22 10:40:21;;;;;;;4.05;0.52;;;;;16.90;101273.00;;;;5035583;28;20286;-77
2021/10/22 10:42:49;;;;;;;1.75;0.65;;;;;17.00;101277.00;;;;5037544;28;20517;-76
2021/10/22 10:45:41;;;;;;;2.85;0.57;;;;;16.90;101269.00;;;;5046884;28;20212;-75
2021/10/22 10:48:18;;;;;;;1.80;0.45;;;;;17.00;101277.00;;;;5034302;28;20190;-75
2021/10/22 10:50:50;;;;;;;3.97;0.57;;;;;17.10;101282.00;;;;5030160;28;20199;-76
2021/10/22 10:53:31;;;;;;;3.75;0.73;;;;;17.00;101285.00;;;;5045884;28;20208;-75
2021/10/22 10:55:59;;;;;;;6.05;1.38;;;;;17.10;101296.00;;;;5032292;28;20238;-74
2021/10/22 10:58:27;;;;;;;1.70;0.68;;;;;17.20;101288.00;;;;5031790;28;20200;-75
2021/10/22 11:00:57;;;;;;;1.38;0.38;;;;;17.30;101292.00;;;;5027778;28;20235;-75
2021/10/22 11:03:28;;;;;;;5.28;1.02;;;;;17.40;101298.00;;;;5028748;28;20196;-75
2021/10/22 11:06:06;;;;;;;5.10;1.17;;;;;17.40;101305.00;;;;5026205;28;20258;-75
2021/10/22 11:08:55;;;;;;;3.28;0.95;;;;;17.40;101300.00;;;;5033744;28;20199;-75
2021/10/22 11:11:36;;;;;;;2.75;0.50;;;;;17.50;101297.00;;;;5032805;28;20199;-76
2021/10/22 11:14:23;;;;;;;5.72;1.15;;;;;17.50;101296.00;;;;5039439;28;20193;-76
2021/10/22 11:17:00;;;;;;;1.33;0.40;;;;;17.60;101309.00;;;;5029201;28;20627;-75
2021/10/22 11:19:39;;;;;;;2.70;0.65;;;;;17.60;101296.00;;;;5035076;28;20203;-76
2021/10/22 11:22:12;;;;;;;3.58;1.35;;;;;17.70;101292.00;;;;5051976;28;20268;-76
2021/10/22 11:24:41;;;;;;;4.10;0.52;;;;;17.70;101296.00;;;;5053896;28;20196;-76
2021/10/22 11:27:10;;;;;;;4.00;1.17;;;;;17.80;101310.00;;;;5032648;28;20207;-76
2021/10/22 11:29:39;;;;;;;2.03;0.73;;;;;17.80;101309.00;;;;5038161;28;20207;-76
2021/10/22 11:32:10;;;;;;;4.68;0.82;;;;;17.90;101308.00;;;;5041808;28;20207;-76
2021/10/22 11:34:41;;;;;;;3.65;1.00;;;;;18.00;101308.00;;;;5038627;28;20320;-77
2021/10/22 11:37:12;;;;;;;9.63;1.60;;;;;18.10;101306.00;;;;5032884;28;20207;-75
2021/10/22 11:39:40;;;;;;;4.72;0.88;;;;;18.20;101314.00;;;;5030879;28;20211;-76
2021/10/22 11:42:19;;;;;;;4.88;1.17;;;;;18.30;101311.00;;;;5028815;28;20227;-75
2021/10/22 11:44:54;;;;;;;4.55;0.73;;;;;18.50;101312.00;;;;5028864;28;20196;-76
2021/10/22 11:47:23;;;;;;;3.03;0.85;;;;;18.60;101321.00;;;;5034299;28;20649;-76
2021/10/22 11:49:52;;;;;;;3.15;0.82;;;;;18.70;101325.00;;;;5048234;28;20200;-76
2021/10/22 11:52:19;;;;;;;3.20;0.80;;;;;18.80;101328.00;;;;5036816;28;20282;-76
2021/10/22 11:54:48;;;;;;;5.13;0.80;;;;;18.90;101326.00;;;;5047677;28;20666;-75
2021/10/22 11:57:18;;;;;;;5.38;1.00;;;;;19.00;101322.00;;;;5029425;28;20577;-75
2021/10/22 11:59:51;;;;;;;4.25;0.68;;;;;19.10;101318.00;;;;5028399;28;20189;-76
2021/10/22 12:02:23;;;;;;;5.85;0.80;;;;;19.10;101316.00;;;;5028975;28;20204;-75
2021/10/22 12:04:58;;;;;;;2.90;0.98;;;;;19.20;101328.00;;;;5035683;28;20203;-77
2021/10/22 12:07:29;;;;;;;5.13;0.88;;;;;19.30;101335.00;;;;5047219;28;20203;-76
2021/10/22 12:09:56;;;;;;;2.78;0.95;;;;;19.40;101323.00;;;;5048644;28;20200;-76
2021/10/22 12:12:25;;;;;;;4.13;0.82;;;;;19.40;101324.00;;;;5038338;28;20671;-77
2021/10/22 12:14:53;;;;;;;10.60;1.02;;;;;19.50;101328.00;;;;5028392;28;20203;-76
2021/10/22 12:17:22;;;;;;;2.65;0.90;;;;;19.50;101331.00;;;;5028745;28;20236;-76
2021/10/22 12:19:52;;;;;;;5.38;1.10;;;;;19.50;101335.00;;;;5028808;28;20554;-75
2021/10/22 12:22:27;;;;;;;7.93;1.23;;;;;19.50;101339.00;;;;5030331;28;20199;-76